sensor_id;sensor_type;location;lat;lon;timestamp;pressure;altitude;pressure_sealevel;temperature;humidity
71504;BME280;59323;50.874;7.028;2022-11-13T00:03:39;102442.78;;;7.18;91.25
71504;BME280;59323;50.874;7.028;2022-11-13T00:06:05;102432.03;;;7.13;91.72
71504;BME280;59323;50.874;7.028;2022-11-13T00:08:31;102431.25;;;7.13;91.42
71504;BME280;59323;50.874;7.028;2022-11-13T00:11:01;102434.75;;;7.13;91.83
71504;BME280;59323;50.874;7.028;2022-11-13T00:13:27;102438.84;;;7.11;91.95
71504;BME280;59323;50.874;7.028;2022-11-13T00:16:04;102435.13;;;7.07;91.55
71504;BME280;59323;50.874;7.028;2022-11-13T00:18:30;102437.75;;;7.12;91.25
71504;BME280;59323;50.874;7.028;2022-11-13T00:21:04;102434.84;;;7.08;91.50
71504;BME280;59323;50.874;7.028;2022-11-13T00:23:31;102434.84;;;7.08;91.74
71504;BME280;59323;50.874;7.028;2022-11-13T00:26:19;102434.34;;;7.06;92.13
71504;BME280;59323;50.874;7.028;2022-11-13T00:28:45;102420.81;;;7.06;91.76
71504;BME280;59323;50.874;7.028;2022-11-13T00:31:13;102416.22;;;7.07;91.30
71504;BME280;59323;50.874;7.028;2022-11-13T00:33:39;102417.03;;;7.07;91.29
71504;BME280;59323;50.874;7.028;2022-11-13T00:36:07;102415.41;;;7.06;91.64
71504;BME280;59323;50.874;7.028;2022-11-13T00:38:33;102409.22;;;7.06;91.40
71504;BME280;59323;50.874;7.028;2022-11-13T00:40:58;102418.31;;;7.10;91.83
71504;BME280;59323;50.874;7.028;2022-11-13T00:43:24;102419.13;;;7.10;91.56
71504;BME280;59323;50.874;7.028;2022-11-13T00:45:50;102414.63;;;7.06;91.50
71504;BME280;59323;50.874;7.028;2022-11-13T00:48:15;102410.00;;;7.06;91.28
71504;BME280;59323;50.874;7.028;2022-11-13T00:50:41;102414.31;;;7.07;91.75
71504;BME280;59323;50.874;7.028;2022-11-13T00:53:06;102409.50;;;7.04;91.77
71504;BME280;59323;50.874;7.028;2022-11-13T00:55:32;102405.22;;;7.03;92.26
71504;BME280;59323;50.874;7.028;2022-11-13T00:57:57;102405.81;;;7.00;91.86
71504;BME280;59323;50.874;7.028;2022-11-13T01:00:22;102404.19;;;6.99;91.90
71504;BME280;59323;50.874;7.028;2022-11-13T01:02:48;102401.78;;;6.97;92.30
71504;BME280;59323;50.874;7.028;2022-11-13T01:05:13;102402.41;;;6.94;92.07
71504;BME280;59323;50.874;7.028;2022-11-13T01:07:38;102400.78;;;6.93;91.91
71504;BME280;59323;50.874;7.028;2022-11-13T01:10:05;102395.19;;;6.90;92.42
71504;BME280;59323;50.874;7.028;2022-11-13T01:12:30;102399.78;;;6.89;91.97
71504;BME280;59323;50.874;7.028;2022-11-13T01:14:56;102392.78;;;6.88;92.65
71504;BME280;59323;50.874;7.028;2022-11-13T01:17:21;102390.38;;;6.87;92.25
71504;BME280;59323;50.874;7.028;2022-11-13T01:19:47;102380.47;;;6.82;92.44
71504;BME280;59323;50.874;7.028;2022-11-13T01:22:12;102394.28;;;6.81;92.85
71504;BME280;59323;50.874;7.028;2022-11-13T01:24:38;102393.78;;;6.79;93.09
71504;BME280;59323;50.874;7.028;2022-11-13T01:27:03;102383.75;;;6.79;92.99
71504;BME280;59323;50.874;7.028;2022-11-13T01:29:28;102392.75;;;6.75;92.63
71504;BME280;59323;50.874;7.028;2022-11-13T01:31:54;102391.97;;;6.74;93.12
71504;BME280;59323;50.874;7.028;2022-11-13T01:34:19;102388.97;;;6.76;92.89
71504;BME280;59323;50.874;7.028;2022-11-13T01:36:44;102382.75;;;6.75;92.76
71504;BME280;59323;50.874;7.028;2022-11-13T01:39:10;102373.34;;;6.73;93.02
71504;BME280;59323;50.874;7.028;2022-11-13T01:41:36;102387.06;;;6.76;92.77
71504;BME280;59323;50.874;7.028;2022-11-13T01:44:02;102374.94;;;6.74;92.45
71504;BME280;59323;50.874;7.028;2022-11-13T01:46:39;102374.66;;;6.75;92.56
71504;BME280;59323;50.874;7.028;2022-11-13T01:51:53;102368.25;;;6.71;92.70
71504;BME280;59323;50.874;7.028;2022-11-13T01:54:24;102358.03;;;6.68;92.86
71504;BME280;59323;50.874;7.028;2022-11-13T01:56:50;102363.94;;;6.70;92.61
71504;BME280;59323;50.874;7.028;2022-11-13T01:59:23;102377.44;;;6.70;92.55
71504;BME280;59323;50.874;7.028;2022-11-13T02:01:49;102370.94;;;6.71;92.33
71504;BME280;59323;50.874;7.028;2022-11-13T02:04:15;102370.72;;;6.67;92.27
71504;BME280;59323;50.874;7.028;2022-11-13T02:06:44;102365.34;;;6.67;92.29
71504;BME280;59323;50.874;7.028;2022-11-13T02:09:12;102360.53;;;6.64;92.95
71504;BME280;59323;50.874;7.028;2022-11-13T02:11:38;102351.13;;;6.62;93.01
71504;BME280;59323;50.874;7.028;2022-11-13T02:14:04;102347.31;;;6.63;92.74
71504;BME280;59323;50.874;7.028;2022-11-13T02:16:31;102345.22;;;6.60;92.97
71504;BME280;59323;50.874;7.028;2022-11-13T02:18:59;102341.22;;;6.57;93.37
71504;BME280;59323;50.874;7.028;2022-11-13T02:21:37;102332.91;;;6.54;92.97
71504;BME280;59323;50.874;7.028;2022-11-13T02:24:16;102338.00;;;6.55;93.11
71504;BME280;59323;50.874;7.028;2022-11-13T02:26:44;102339.41;;;6.53;92.78
71504;BME280;59323;50.874;7.028;2022-11-13T02:29:10;102330.19;;;6.54;92.33
71504;BME280;59323;50.874;7.028;2022-11-13T02:31:35;102331.00;;;6.54;92.08
71504;BME280;59323;50.874;7.028;2022-11-13T02:34:01;102321.28;;;6.53;91.85
71504;BME280;59323;50.874;7.028;2022-11-13T02:36:27;102324.00;;;6.53;91.16
71504;BME280;59323;50.874;7.028;2022-11-13T02:38:55;102325.41;;;6.51;91.79
71504;BME280;59323;50.874;7.028;2022-11-13T02:41:22;102322.97;;;6.49;91.17
71504;BME280;59323;50.874;7.028;2022-11-13T02:43:47;102312.75;;;6.46;91.36
71504;BME280;59323;50.874;7.028;2022-11-13T02:46:13;102321.34;;;6.48;91.13
71504;BME280;59323;50.874;7.028;2022-11-13T02:48:38;102312.25;;;6.44;90.57
71504;BME280;59323;50.874;7.028;2022-11-13T02:51:04;102311.75;;;6.42;90.94
71504;BME280;59323;50.874;7.028;2022-11-13T02:53:29;102310.44;;;6.40;90.93
71504;BME280;59323;50.874;7.028;2022-11-13T02:55:54;102309.44;;;6.35;91.02
71504;BME280;59323;50.874;7.028;2022-11-13T02:58:20;102297.63;;;6.31;90.73
71504;BME280;59323;50.874;7.028;2022-11-13T03:00:45;102296.03;;;6.30;90.81
71504;BME280;59323;50.874;7.028;2022-11-13T03:03:10;102292.81;;;6.28;91.30
71504;BME280;59323;50.874;7.028;2022-11-13T03:05:36;102296.31;;;6.29;90.65
71504;BME280;59323;50.874;7.028;2022-11-13T03:08:01;102292.91;;;6.23;91.15
71504;BME280;59323;50.874;7.028;2022-11-13T03:10:27;102300.00;;;6.19;91.21
71504;BME280;59323;50.874;7.028;2022-11-13T03:12:52;102295.19;;;6.16;91.50
71504;BME280;59323;50.874;7.028;2022-11-13T03:15:18;102289.28;;;6.14;91.16
71504;BME280;59323;50.874;7.028;2022-11-13T03:17:43;102296.28;;;6.15;91.92
71504;BME280;59323;50.874;7.028;2022-11-13T03:20:08;102298.19;;;6.15;91.31
71504;BME280;59323;50.874;7.028;2022-11-13T03:22:34;102299.00;;;6.15;91.60
71504;BME280;59323;50.874;7.028;2022-11-13T03:24:59;102309.78;;;6.15;91.38
71504;BME280;59323;50.874;7.028;2022-11-13T03:27:24;102305.47;;;6.14;91.06
71504;BME280;59323;50.874;7.028;2022-11-13T03:29:50;102299.59;;;6.12;90.81
71504;BME280;59323;50.874;7.028;2022-11-13T03:32:15;102300.69;;;6.11;90.16
71504;BME280;59323;50.874;7.028;2022-11-13T03:34:41;102305.56;;;6.09;90.44
71504;BME280;59323;50.874;7.028;2022-11-13T03:37:06;102304.25;;;6.07;90.14
71504;BME280;59323;50.874;7.028;2022-11-13T03:39:32;102301.84;;;6.05;90.02
71504;BME280;59323;50.874;7.028;2022-11-13T03:41:57;102302.94;;;6.04;90.43
71504;BME280;59323;50.874;7.028;2022-11-13T03:44:22;102301.13;;;5.99;90.13
71504;BME280;59323;50.874;7.028;2022-11-13T03:46:48;102302.53;;;5.97;89.61
71504;BME280;59323;50.874;7.028;2022-11-13T03:49:14;102303.91;;;5.94;89.98
71504;BME280;59323;50.874;7.028;2022-11-13T03:51:39;102287.56;;;5.86;89.50
71504;BME280;59323;50.874;7.028;2022-11-13T03:54:04;102289.16;;;5.87;90.00
71504;BME280;59323;50.874;7.028;2022-11-13T03:56:30;102293.81;;;5.81;89.26
71504;BME280;59323;50.874;7.028;2022-11-13T03:58:55;102293.81;;;5.81;89.35
71504;BME280;59323;50.874;7.028;2022-11-13T04:01:20;102289.81;;;5.79;89.91
71504;BME280;59323;50.874;7.028;2022-11-13T04:03:46;102293.09;;;5.76;89.40
71504;BME280;59323;50.874;7.028;2022-11-13T04:06:11;102292.59;;;5.73;90.23
71504;BME280;59323;50.874;7.028;2022-11-13T04:08:38;102283.19;;;5.71;89.97
71504;BME280;59323;50.874;7.028;2022-11-13T04:11:13;102292.06;;;5.71;90.19
71504;BME280;59323;50.874;7.028;2022-11-13T04:13:39;102293.47;;;5.69;90.06
71504;BME280;59323;50.874;7.028;2022-11-13T04:16:04;102288.06;;;5.69;90.28
71504;BME280;59323;50.874;7.028;2022-11-13T04:18:30;102291.34;;;5.66;90.30
71504;BME280;59323;50.874;7.028;2022-11-13T04:21:03;102284.66;;;5.63;91.21
71504;BME280;59323;50.874;7.028;2022-11-13T04:23:29;102279.53;;;5.62;90.99
71504;BME280;59323;50.874;7.028;2022-11-13T04:25:54;102278.75;;;5.61;91.18
71504;BME280;59323;50.874;7.028;2022-11-13T04:28:19;102283.63;;;5.59;90.86
71504;BME280;59323;50.874;7.028;2022-11-13T04:30:45;102276.94;;;5.57;91.94
71504;BME280;59323;50.874;7.028;2022-11-13T04:33:10;102269.94;;;5.56;91.49
71504;BME280;59323;50.874;7.028;2022-11-13T04:35:38;102266.72;;;5.54;91.60
71504;BME280;59323;50.874;7.028;2022-11-13T04:38:06;102265.94;;;5.53;91.55
71504;BME280;59323;50.874;7.028;2022-11-13T04:40:31;102261.63;;;5.52;91.58
71504;BME280;59323;50.874;7.028;2022-11-13T04:42:56;102249.53;;;5.50;91.58
71504;BME280;59323;50.874;7.028;2022-11-13T04:45:23;102253.03;;;5.50;91.90
71504;BME280;59323;50.874;7.028;2022-11-13T04:47:53;102254.41;;;5.48;91.96
71504;BME280;59323;50.874;7.028;2022-11-13T04:50:18;102253.63;;;5.47;92.10
71504;BME280;59323;50.874;7.028;2022-11-13T04:52:44;102250.13;;;5.47;91.97
71504;BME280;59323;50.874;7.028;2022-11-13T04:55:10;102242.91;;;5.42;91.48
71504;BME280;59323;50.874;7.028;2022-11-13T04:57:36;102239.91;;;5.44;91.33
71504;BME280;59323;50.874;7.028;2022-11-13T05:00:03;102246.13;;;5.44;91.92
71504;BME280;59323;50.874;7.028;2022-11-13T05:02:29;102244.50;;;5.43;91.61
71504;BME280;59323;50.874;7.028;2022-11-13T05:04:54;102227.03;;;5.40;91.88
71504;BME280;59323;50.874;7.028;2022-11-13T05:07:20;102232.13;;;5.42;91.55
71504;BME280;59323;50.874;7.028;2022-11-13T05:09:45;102230.22;;;5.43;91.49
71504;BME280;59323;50.874;7.028;2022-11-13T05:12:10;102225.66;;;5.43;91.30
71504;BME280;59323;50.874;7.028;2022-11-13T05:14:37;102224.53;;;5.44;91.02
71504;BME280;59323;50.874;7.028;2022-11-13T05:17:04;102225.34;;;5.45;91.32
71504;BME280;59323;50.874;7.028;2022-11-13T05:19:31;102214.84;;;5.43;90.94
71504;BME280;59323;50.874;7.028;2022-11-13T05:21:57;102218.66;;;5.42;90.32
71504;BME280;59323;50.874;7.028;2022-11-13T05:24:23;102218.13;;;5.40;90.45
71504;BME280;59323;50.874;7.028;2022-11-13T05:26:48;102214.94;;;5.38;90.32
71504;BME280;59323;50.874;7.028;2022-11-13T05:29:14;102210.13;;;5.35;90.64
71504;BME280;59323;50.874;7.028;2022-11-13T05:31:39;102215.53;;;5.35;90.83
71504;BME280;59323;50.874;7.028;2022-11-13T05:34:06;102220.41;;;5.33;90.16
71504;BME280;59323;50.874;7.028;2022-11-13T05:36:32;102220.69;;;5.31;90.52
71504;BME280;59323;50.874;7.028;2022-11-13T05:38:57;102212.09;;;5.29;90.41
71504;BME280;59323;50.874;7.028;2022-11-13T05:41:23;102217.28;;;5.26;90.15
71504;BME280;59323;50.874;7.028;2022-11-13T05:43:49;102203.41;;;5.14;90.32
71504;BME280;59323;50.874;7.028;2022-11-13T05:46:23;102207.06;;;5.23;90.12
71504;BME280;59323;50.874;7.028;2022-11-13T05:48:53;102203.88;;;5.21;90.22
71504;BME280;59323;50.874;7.028;2022-11-13T05:51:22;102198.75;;;5.19;90.21
71504;BME280;59323;50.874;7.028;2022-11-13T05:53:47;102188.25;;;5.18;90.20
71504;BME280;59323;50.874;7.028;2022-11-13T05:58:43;102185.00;;;5.21;90.83
71504;BME280;59323;50.874;7.028;2022-11-13T06:01:12;102186.06;;;5.20;90.69
71504;BME280;59323;50.874;7.028;2022-11-13T06:03:39;102181.28;;;5.17;89.97
71504;BME280;59323;50.874;7.028;2022-11-13T06:06:06;102179.66;;;5.16;90.69
71504;BME280;59323;50.874;7.028;2022-11-13T06:08:31;102171.88;;;5.14;90.62
71504;BME280;59323;50.874;7.028;2022-11-13T06:11:06;102173.78;;;5.14;90.60
71504;BME280;59323;50.874;7.028;2022-11-13T06:13:32;102167.06;;;5.11;90.03
71504;BME280;59323;50.874;7.028;2022-11-13T06:16:09;102167.66;;;5.08;90.36
71504;BME280;59323;50.874;7.028;2022-11-13T06:18:35;102161.97;;;5.09;90.63
71504;BME280;59323;50.874;7.028;2022-11-13T06:21:05;102150.19;;;5.05;89.82
71504;BME280;59323;50.874;7.028;2022-11-13T06:23:32;102153.97;;;5.04;89.88
71504;BME280;59323;50.874;7.028;2022-11-13T06:26:06;102161.53;;;5.02;89.64
71504;BME280;59323;50.874;7.028;2022-11-13T06:28:32;102147.56;;;5.00;89.68
71504;BME280;59323;50.874;7.028;2022-11-13T06:31:03;102150.03;;;4.97;89.17
71504;BME280;59323;50.874;7.028;2022-11-13T06:33:29;102153.25;;;4.99;89.14
71504;BME280;59323;50.874;7.028;2022-11-13T06:35:55;102144.94;;;4.95;89.33
71504;BME280;59323;50.874;7.028;2022-11-13T06:38:20;102143.06;;;4.96;89.22
71504;BME280;59323;50.874;7.028;2022-11-13T06:40:45;102139.56;;;4.95;88.70
71504;BME280;59323;50.874;7.028;2022-11-13T06:43:11;102139.25;;;4.97;88.52
71504;BME280;59323;50.874;7.028;2022-11-13T06:45:36;102144.66;;;4.97;88.43
71504;BME280;59323;50.874;7.028;2022-11-13T06:48:01;102127.75;;;4.91;88.26
71504;BME280;59323;50.874;7.028;2022-11-13T06:50:27;102138.75;;;4.95;88.47
71504;BME280;59323;50.874;7.028;2022-11-13T06:52:53;102142.47;;;4.99;88.05
71504;BME280;59323;50.874;7.028;2022-11-13T06:55:18;102137.66;;;4.96;88.13
71504;BME280;59323;50.874;7.028;2022-11-13T06:57:43;102137.66;;;4.96;87.17
71504;BME280;59323;50.874;7.028;2022-11-13T07:00:09;102140.06;;;4.97;87.28
71504;BME280;59323;50.874;7.028;2022-11-13T07:02:35;102138.53;;;4.91;87.34
71504;BME280;59323;50.874;7.028;2022-11-13T07:05:01;102138.31;;;4.88;87.55
71504;BME280;59323;50.874;7.028;2022-11-13T07:07:26;102137.22;;;4.89;87.42
71504;BME280;59323;50.874;7.028;2022-11-13T07:09:51;102142.91;;;4.87;87.95
71504;BME280;59323;50.874;7.028;2022-11-13T07:12:17;102145.00;;;4.90;86.86
71504;BME280;59323;50.874;7.028;2022-11-13T07:14:42;102146.09;;;4.89;87.36
71504;BME280;59323;50.874;7.028;2022-11-13T07:17:07;102153.38;;;4.89;86.93
71504;BME280;59323;50.874;7.028;2022-11-13T07:19:32;102153.16;;;4.85;87.27
71504;BME280;59323;50.874;7.028;2022-11-13T07:21:58;102146.97;;;4.85;88.10
71504;BME280;59323;50.874;7.028;2022-11-13T07:24:23;102149.91;;;4.88;88.35
71504;BME280;59323;50.874;7.028;2022-11-13T07:26:49;102144.44;;;4.93;88.11
71504;BME280;59323;50.874;7.028;2022-11-13T07:29:14;102141.16;;;4.96;88.24
71504;BME280;59323;50.874;7.028;2022-11-13T07:31:39;102142.97;;;5.01;87.98
71504;BME280;59323;50.874;7.028;2022-11-13T07:34:05;102140.00;;;5.02;88.31
71504;BME280;59323;50.874;7.028;2022-11-13T07:36:30;102130.53;;;5.05;88.21
71504;BME280;59323;50.874;7.028;2022-11-13T07:38:56;102135.25;;;5.13;88.00
71504;BME280;59323;50.874;7.028;2022-11-13T07:41:21;102130.16;;;5.12;87.12
71504;BME280;59323;50.874;7.028;2022-11-13T07:43:46;102119.38;;;5.12;87.55
71504;BME280;59323;50.874;7.028;2022-11-13T07:46:12;102119.66;;;5.10;86.48
71504;BME280;59323;50.874;7.028;2022-11-13T07:48:37;102111.59;;;5.10;87.24
71504;BME280;59323;50.874;7.028;2022-11-13T07:51:03;102119.09;;;5.13;87.14
71504;BME280;59323;50.874;7.028;2022-11-13T07:53:28;102110.41;;;5.16;87.77
71504;BME280;59323;50.874;7.028;2022-11-13T07:55:54;102110.41;;;5.16;87.59
71504;BME280;59323;50.874;7.028;2022-11-13T07:58:19;102112.16;;;5.26;87.93
71504;BME280;59323;50.874;7.028;2022-11-13T08:00:45;102115.00;;;5.34;88.03
71504;BME280;59323;50.874;7.028;2022-11-13T08:03:13;102104.94;;;5.40;88.23
71504;BME280;59323;50.874;7.028;2022-11-13T08:05:39;102106.47;;;5.60;88.36
71504;BME280;59323;50.874;7.028;2022-11-13T08:08:05;102106.19;;;5.75;87.64
71504;BME280;59323;50.874;7.028;2022-11-13T08:10:31;102098.28;;;5.97;86.69
71504;BME280;59323;50.874;7.028;2022-11-13T08:13:02;102106.66;;;6.23;86.93
71504;BME280;59323;50.874;7.028;2022-11-13T08:15:29;102103.34;;;6.54;85.68
71504;BME280;59323;50.874;7.028;2022-11-13T08:17:56;102114.16;;;6.90;85.60
71504;BME280;59323;50.874;7.028;2022-11-13T08:20:22;102108.44;;;7.27;84.49
71504;BME280;59323;50.874;7.028;2022-11-13T08:22:48;102111.50;;;7.66;83.25
71504;BME280;59323;50.874;7.028;2022-11-13T08:25:14;102107.41;;;7.99;81.03
71504;BME280;59323;50.874;7.028;2022-11-13T08:27:39;102096.97;;;8.23;78.03
71504;BME280;59323;50.874;7.028;2022-11-13T08:30:05;102104.25;;;8.54;77.92
71504;BME280;59323;50.874;7.028;2022-11-13T08:32:40;102106.19;;;8.88;77.96
71504;BME280;59323;50.874;7.028;2022-11-13T08:35:05;102101.09;;;9.12;76.40
71504;BME280;59323;50.874;7.028;2022-11-13T08:37:31;102090.22;;;9.30;74.68
71504;BME280;59323;50.874;7.028;2022-11-13T08:39:57;102078.06;;;9.44;73.65
71504;BME280;59323;50.874;7.028;2022-11-13T08:42:22;102070.38;;;9.55;72.50
71504;BME280;59323;50.874;7.028;2022-11-13T08:44:48;102069.56;;;9.54;69.46
71504;BME280;59323;50.874;7.028;2022-11-13T08:47:13;102072.91;;;9.60;69.81
71504;BME280;59323;50.874;7.028;2022-11-13T08:49:38;102068.84;;;9.75;71.18
71504;BME280;59323;50.874;7.028;2022-11-13T08:52:04;102065.25;;;10.00;71.46
71504;BME280;59323;50.874;7.028;2022-11-13T08:54:29;102063.56;;;10.16;68.87
71504;BME280;59323;50.874;7.028;2022-11-13T08:56:54;102058.16;;;10.46;70.20
71504;BME280;59323;50.874;7.028;2022-11-13T08:59:20;102060.94;;;10.58;68.80
71504;BME280;59323;50.874;7.028;2022-11-13T09:01:47;102060.81;;;10.55;66.76
71504;BME280;59323;50.874;7.028;2022-11-13T09:04:13;102051.19;;;10.57;65.72
71504;BME280;59323;50.874;7.028;2022-11-13T09:06:38;102067.69;;;10.73;65.32
71504;BME280;59323;50.874;7.028;2022-11-13T09:09:05;102047.91;;;10.85;67.65
71504;BME280;59323;50.874;7.028;2022-11-13T09:11:42;102064.34;;;10.88;63.59
71504;BME280;59323;50.874;7.028;2022-11-13T09:14:19;102058.28;;;11.03;66.41
71504;BME280;59323;50.874;7.028;2022-11-13T09:16:44;102062.09;;;11.11;64.63
71504;BME280;59323;50.874;7.028;2022-11-13T09:19:09;102058.50;;;11.19;65.53
71504;BME280;59323;50.874;7.028;2022-11-13T09:21:35;102052.59;;;11.17;64.13
71504;BME280;59323;50.874;7.028;2022-11-13T09:24:01;102049.91;;;11.29;65.14
71504;BME280;59323;50.874;7.028;2022-11-13T09:26:26;102043.34;;;11.42;64.67
71504;BME280;59323;50.874;7.028;2022-11-13T09:28:51;102052.78;;;11.57;63.73
71504;BME280;59323;50.874;7.028;2022-11-13T09:31:17;102051.44;;;11.63;63.46
71504;BME280;59323;50.874;7.028;2022-11-13T09:33:42;102051.88;;;11.65;63.36
71504;BME280;59323;50.874;7.028;2022-11-13T09:36:12;102050.88;;;11.70;62.50
71504;BME280;59323;50.874;7.028;2022-11-13T09:38:38;102050.22;;;11.73;62.88
71504;BME280;59323;50.874;7.028;2022-11-13T09:41:17;102047.78;;;11.59;60.71
71504;BME280;59323;50.874;7.028;2022-11-13T09:43:52;102035.31;;;11.58;60.93
71504;BME280;59323;50.874;7.028;2022-11-13T09:46:55;102047.56;;;11.64;62.22
71504;BME280;59323;50.874;7.028;2022-11-13T09:51:41;102040.22;;;11.77;61.45
71504;BME280;59323;50.874;7.028;2022-11-13T09:54:14;102044.75;;;11.73;60.28
71504;BME280;59323;50.874;7.028;2022-11-13T09:57:13;102049.22;;;11.90;61.40
71504;BME280;59323;50.874;7.028;2022-11-13T10:00:16;102047.75;;;11.92;60.00
71504;BME280;59323;50.874;7.028;2022-11-13T10:02:58;102040.00;;;12.06;60.79
71504;BME280;59323;50.874;7.028;2022-11-13T10:08:15;102041.59;;;12.07;56.43
71504;BME280;59323;50.874;7.028;2022-11-13T10:13:18;102037.28;;;12.19;58.14
71504;BME280;59323;50.874;7.028;2022-11-13T10:15:48;102036.81;;;12.29;56.64
71504;BME280;59323;50.874;7.028;2022-11-13T10:18:28;102034.53;;;12.31;58.51
71504;BME280;59323;50.874;7.028;2022-11-13T10:21:08;102038.63;;;12.37;57.80
71504;BME280;59323;50.874;7.028;2022-11-13T10:23:37;102022.47;;;12.44;59.34
71504;BME280;59323;50.874;7.028;2022-11-13T10:26:13;102021.56;;;12.52;59.47
71504;BME280;59323;50.874;7.028;2022-11-13T10:28:39;102018.91;;;12.56;58.70
71504;BME280;59323;50.874;7.028;2022-11-13T10:31:10;102022.78;;;12.55;59.54
71504;BME280;59323;50.874;7.028;2022-11-13T10:33:36;102020.84;;;12.55;60.09
71504;BME280;59323;50.874;7.028;2022-11-13T10:39:06;102011.28;;;12.61;60.17
71504;BME280;59323;50.874;7.028;2022-11-13T10:41:32;102000.97;;;12.55;60.08
71504;BME280;59323;50.874;7.028;2022-11-13T10:44:04;102000.31;;;12.46;60.91
71504;BME280;59323;50.874;7.028;2022-11-13T10:46:30;101989.19;;;12.51;60.18
71504;BME280;59323;50.874;7.028;2022-11-13T10:48:57;101983.28;;;12.49;60.36
71504;BME280;59323;50.874;7.028;2022-11-13T10:53:49;101980.66;;;12.52;60.33
71504;BME280;59323;50.874;7.028;2022-11-13T10:56:34;101969.66;;;12.49;60.88
71504;BME280;59323;50.874;7.028;2022-11-13T10:59:00;101976.34;;;12.51;60.61
71504;BME280;59323;50.874;7.028;2022-11-13T11:01:26;101963.84;;;12.50;60.47
71504;BME280;59323;50.874;7.028;2022-11-13T11:03:52;101957.25;;;12.51;58.78
71504;BME280;59323;50.874;7.028;2022-11-13T11:06:17;101956.47;;;12.51;57.79
71504;BME280;59323;50.874;7.028;2022-11-13T11:08:42;101958.03;;;12.52;57.88
71504;BME280;59323;50.874;7.028;2022-11-13T11:11:16;101954.88;;;12.50;58.50
71504;BME280;59323;50.874;7.028;2022-11-13T11:14:22;101950.06;;;12.59;58.77
71504;BME280;59323;50.874;7.028;2022-11-13T11:16:51;101943.03;;;12.58;59.17
71504;BME280;59323;50.874;7.028;2022-11-13T11:19:19;101931.16;;;12.66;58.15
71504;BME280;59323;50.874;7.028;2022-11-13T11:21:47;101915.94;;;12.65;57.70
71504;BME280;59323;50.874;7.028;2022-11-13T11:24:24;101914.09;;;12.69;58.50
71504;BME280;59323;50.874;7.028;2022-11-13T11:27:18;101906.00;;;12.73;58.06
71504;BME280;59323;50.874;7.028;2022-11-13T11:29:59;101901.97;;;12.82;57.22
71504;BME280;59323;50.874;7.028;2022-11-13T11:35:20;101891.94;;;12.86;56.78
71504;BME280;59323;50.874;7.028;2022-11-13T11:37:56;101896.16;;;12.84;56.43
71504;BME280;59323;50.874;7.028;2022-11-13T11:40:40;101892.03;;;12.90;56.20
71504;BME280;59323;50.874;7.028;2022-11-13T11:43:32;101878.91;;;12.95;55.29
71504;BME280;59323;50.874;7.028;2022-11-13T11:46:01;101882.09;;;12.97;55.33
71504;BME280;59323;50.874;7.028;2022-11-13T11:48:29;101875.59;;;13.02;56.29
71504;BME280;59323;50.874;7.028;2022-11-13T11:56:20;101858.34;;;13.14;55.14
71504;BME280;59323;50.874;7.028;2022-11-13T12:21:04;101809.81;;;13.58;53.36
71504;BME280;59323;50.874;7.028;2022-11-13T12:26:25;101804.97;;;13.67;54.22
71504;BME280;59323;50.874;7.028;2022-11-13T12:34:15;101798.06;;;13.73;54.42
71504;BME280;59323;50.874;7.028;2022-11-13T12:36:46;101791.81;;;13.73;55.56
71504;BME280;59323;50.874;7.028;2022-11-13T12:42:04;101787.56;;;13.75;57.65
71504;BME280;59323;50.874;7.028;2022-11-13T12:44:43;101782.88;;;13.76;57.12
71504;BME280;59323;50.874;7.028;2022-11-13T12:47:11;101772.41;;;13.78;55.68
71504;BME280;59323;50.874;7.028;2022-11-13T12:49:36;101777.13;;;13.81;55.34
71504;BME280;59323;50.874;7.028;2022-11-13T12:52:22;101775.63;;;13.83;57.37
71504;BME280;59323;50.874;7.028;2022-11-13T12:54:48;101775.63;;;13.83;56.86
71504;BME280;59323;50.874;7.028;2022-11-13T12:57:20;101775.19;;;13.81;57.44
71504;BME280;59323;50.874;7.028;2022-11-13T13:10:21;101750.19;;;13.79;55.91
71504;BME280;59323;50.874;7.028;2022-11-13T13:13:07;101748.22;;;13.80;57.79
71504;BME280;59323;50.874;7.028;2022-11-13T13:15:39;101750.59;;;13.81;57.12
71504;BME280;59323;50.874;7.028;2022-11-13T13:20:39;101756.50;;;13.83;55.73
71504;BME280;59323;50.874;7.028;2022-11-13T13:23:10;101740.03;;;13.80;57.03
71504;BME280;59323;50.874;7.028;2022-11-13T13:25:35;101723.59;;;13.76;57.39
71504;BME280;59323;50.874;7.028;2022-11-13T13:28:13;101723.66;;;13.80;57.46
71504;BME280;59323;50.874;7.028;2022-11-13T13:47:46;101708.38;;;13.98;55.97
71504;BME280;59323;50.874;7.028;2022-11-13T13:50:16;101700.59;;;14.00;55.50
71504;BME280;59323;50.874;7.028;2022-11-13T13:52:43;101693.91;;;13.98;55.96
71504;BME280;59323;50.874;7.028;2022-11-13T13:55:37;101693.91;;;13.98;57.37
71504;BME280;59323;50.874;7.028;2022-11-13T13:58:08;101689.09;;;13.91;56.97
71504;BME280;59323;50.874;7.028;2022-11-13T14:00:37;101681.69;;;13.91;56.80
71504;BME280;59323;50.874;7.028;2022-11-13T14:03:03;101687.16;;;13.91;57.24
71504;BME280;59323;50.874;7.028;2022-11-13T14:07:56;101676.66;;;13.93;57.04
71504;BME280;59323;50.874;7.028;2022-11-13T14:10:25;101677.50;;;13.98;55.29
71504;BME280;59323;50.874;7.028;2022-11-13T14:12:52;101668.16;;;13.99;55.40
71504;BME280;59323;50.874;7.028;2022-11-13T14:15:24;101662.63;;;13.95;56.04
71504;BME280;59323;50.874;7.028;2022-11-13T14:17:51;101662.22;;;13.93;55.15
71504;BME280;59323;50.874;7.028;2022-11-13T14:20:17;101659.84;;;13.91;56.09
71504;BME280;59323;50.874;7.028;2022-11-13T14:22:45;101653.53;;;13.87;57.25
71504;BME280;59323;50.874;7.028;2022-11-13T14:25:23;101647.22;;;13.83;58.89
71504;BME280;59323;50.874;7.028;2022-11-13T14:27:49;101649.47;;;13.78;59.05
71504;BME280;59323;50.874;7.028;2022-11-13T14:30:23;101645.09;;;13.73;59.90
71504;BME280;59323;50.874;7.028;2022-11-13T14:32:49;101639.50;;;13.66;60.77
71504;BME280;59323;50.874;7.028;2022-11-13T14:35:23;101643.28;;;13.61;59.97
71504;BME280;59323;50.874;7.028;2022-11-13T14:37:51;101636.19;;;13.57;61.12